createdAt,value
2023-05-04T00:01:22.316Z,6.82
2023-05-04T00:04:27.094Z,6.90
2023-05-04T00:07:31.729Z,6.97
2023-05-04T00:10:36.756Z,7.07
2023-05-04T00:13:41.237Z,7.35
2023-05-04T00:16:46.123Z,7.13
2023-05-04T00:19:50.928Z,7.60
2023-05-04T00:22:55.550Z,7.68
2023-05-04T00:26:00.555Z,7.40
2023-05-04T00:29:05.239Z,7.35
2023-05-04T00:32:10.934Z,6.70
2023-05-04T00:35:15.452Z,7.88
2023-05-04T00:38:20.238Z,6.88
2023-05-04T00:41:25.108Z,6.85
2023-05-04T00:44:29.826Z,7.90
2023-05-04T00:47:34.939Z,8.38
2023-05-04T00:50:40.621Z,7.38
2023-05-04T00:53:45.869Z,6.90
2023-05-04T00:56:50.643Z,8.40
2023-05-04T00:59:56.680Z,7.40
2023-05-04T01:03:01.358Z,7.25
2023-05-04T01:06:11.857Z,7.13
2023-05-04T01:09:31.468Z,7.15
2023-05-04T01:12:44.684Z,6.30
2023-05-04T01:15:50.003Z,8.48
2023-05-04T01:18:54.704Z,7.00
2023-05-04T01:21:59.788Z,5.75
2023-05-04T01:25:07.839Z,6.90
2023-05-04T01:28:44.507Z,5.95
2023-05-04T01:31:50.908Z,6.50
2023-05-04T01:34:56.758Z,6.70
2023-05-04T01:38:01.965Z,6.95
2023-05-04T01:41:06.367Z,6.47
2023-05-04T01:44:11.040Z,7.05
2023-05-04T01:47:15.789Z,6.55
2023-05-04T01:50:20.140Z,7.30
2023-05-04T01:53:24.496Z,7.28
2023-05-04T01:56:29.040Z,7.93
2023-05-04T01:59:33.654Z,6.40
2023-05-04T02:02:38.288Z,7.57
2023-05-04T02:05:42.969Z,7.05
2023-05-04T02:08:47.378Z,5.72
2023-05-04T02:11:52.246Z,6.20
2023-05-04T02:14:56.918Z,6.75
2023-05-04T02:18:01.795Z,6.40
2023-05-04T02:21:06.640Z,7.05
2023-05-04T02:24:11.630Z,6.80
2023-05-04T02:27:16.129Z,7.00
2023-05-04T02:30:20.853Z,5.75
2023-05-04T02:33:25.375Z,6.80
2023-05-04T02:36:29.851Z,6.95
2023-05-04T02:39:34.647Z,6.75
2023-05-04T02:42:40.136Z,6.57
2023-05-04T02:45:45.506Z,6.68
2023-05-04T02:48:49.956Z,6.63
2023-05-04T02:51:54.932Z,6.55
2023-05-04T02:55:00.941Z,6.15
2023-05-04T02:58:05.839Z,6.70
2023-05-04T03:01:10.691Z,6.00
2023-05-04T03:04:15.431Z,6.18
2023-05-04T03:07:20.173Z,7.30
2023-05-04T03:10:25.156Z,6.10
2023-05-04T03:13:29.730Z,5.88
2023-05-04T03:16:35.137Z,6.68
2023-05-04T03:19:40.454Z,6.00
2023-05-04T03:22:46.512Z,6.75
2023-05-04T03:25:51.388Z,6.10
2023-05-04T03:28:56.252Z,5.43
2023-05-04T03:32:00.816Z,6.72
2023-05-04T03:35:06.040Z,5.78
2023-05-04T03:38:11.468Z,6.75
2023-05-04T03:41:17.068Z,6.43
2023-05-04T03:44:21.691Z,4.97
2023-05-04T03:47:26.522Z,6.10
2023-05-04T03:50:31.950Z,6.80
2023-05-04T03:53:36.915Z,6.30
2023-05-04T03:56:41.177Z,5.70
2023-05-04T03:59:47.176Z,6.75
2023-05-04T04:02:52.137Z,5.93
2023-05-04T04:05:57.846Z,7.32
2023-05-04T04:09:03.801Z,6.70
2023-05-04T04:12:08.568Z,7.50
2023-05-04T04:15:13.211Z,6.50
2023-05-04T04:18:17.880Z,6.85
2023-05-04T04:21:22.656Z,6.57
2023-05-04T04:24:27.067Z,6.47
2023-05-04T04:27:31.660Z,5.70
2023-05-04T04:30:36.157Z,4.97
2023-05-04T04:33:41.021Z,6.22
2023-05-04T04:36:46.205Z,6.78
2023-05-04T04:39:50.731Z,6.68
2023-05-04T04:42:56.315Z,6.78
2023-05-04T04:46:01.251Z,5.72
2023-05-04T04:49:05.964Z,6.22
2023-05-04T04:52:12.209Z,7.80
2023-05-04T04:55:17.976Z,5.50
2023-05-04T04:58:22.405Z,5.88
2023-05-04T05:01:27.313Z,7.10
2023-05-04T05:04:31.951Z,6.53
2023-05-04T05:07:36.840Z,6.65
2023-05-04T05:10:43.861Z,7.00
2023-05-04T05:13:49.103Z,5.13
2023-05-04T05:16:54.364Z,6.20
2023-05-04T05:19:58.839Z,5.45
2023-05-04T05:23:03.276Z,5.35
2023-05-04T05:26:07.554Z,6.07
2023-05-04T05:29:12.322Z,5.70
2023-05-04T05:32:17.301Z,5.50
2023-05-04T05:35:21.975Z,6.05
2023-05-04T05:38:26.828Z,5.40
2023-05-04T05:41:31.334Z,6.05
2023-05-04T05:44:37.502Z,4.63
2023-05-04T05:47:42.197Z,4.72
2023-05-04T05:50:46.643Z,5.53
2023-05-04T05:53:51.048Z,5.72
2023-05-04T05:56:55.683Z,5.10
2023-05-04T06:00:00.388Z,5.82
2023-05-04T06:03:05.122Z,5.05
2023-05-04T06:06:10.168Z,6.00
2023-05-04T06:09:14.703Z,5.05
2023-05-04T06:12:19.295Z,4.70
2023-05-04T06:15:23.879Z,4.20
2023-05-04T06:18:28.160Z,4.70
2023-05-04T06:21:33.210Z,3.90
2023-05-04T06:24:37.833Z,3.95
2023-05-04T06:27:42.309Z,4.07
2023-05-04T06:30:46.963Z,3.80
2023-05-04T06:33:51.481Z,3.92
2023-05-04T06:36:56.693Z,4.82
2023-05-04T06:40:01.127Z,3.60
2023-05-04T06:43:06.723Z,3.75
2023-05-04T06:46:11.255Z,3.95
2023-05-04T06:49:17.684Z,4.25
2023-05-04T06:52:22.069Z,3.50
2023-05-04T06:55:26.516Z,3.90
2023-05-04T06:58:30.949Z,3.15
2023-05-04T07:01:35.890Z,3.80
2023-05-04T07:04:40.658Z,3.45
2023-05-04T07:07:45.101Z,3.50
2023-05-04T07:10:49.556Z,3.63
2023-05-04T07:13:53.940Z,3.90
2023-05-04T07:17:00.001Z,3.60
2023-05-04T07:20:06.424Z,3.58
2023-05-04T07:23:11.407Z,3.63
2023-05-04T07:26:16.076Z,3.90
2023-05-04T07:29:20.889Z,3.28
2023-05-04T07:32:25.664Z,4.32
2023-05-04T07:35:30.303Z,3.63
2023-05-04T07:38:35.428Z,3.90
2023-05-04T07:41:39.999Z,3.70
2023-05-04T07:44:44.643Z,4.43
2023-05-04T07:47:49.546Z,3.20
2023-05-04T07:50:55.289Z,3.15
2023-05-04T07:54:00.015Z,3.45
2023-05-04T07:57:05.259Z,3.88
2023-05-04T08:00:10.964Z,3.45
2023-05-04T08:03:19.080Z,2.90
2023-05-04T08:06:24.055Z,2.78
2023-05-04T08:09:29.242Z,2.53
2023-05-04T08:12:34.071Z,2.60
2023-05-04T08:15:38.668Z,2.33
2023-05-04T08:18:43.604Z,2.28
2023-05-04T08:21:48.484Z,2.60
2023-05-04T08:24:53.418Z,2.38
2023-05-04T08:27:58.318Z,2.97
2023-05-04T08:31:03.970Z,2.25
2023-05-04T08:34:08.501Z,2.15
2023-05-04T08:37:13.423Z,2.67
2023-05-04T08:40:19.144Z,1.85
2023-05-04T08:43:24.356Z,2.08
2023-05-04T08:46:32.568Z,2.67
2023-05-04T08:49:37.212Z,2.30
2023-05-04T08:52:49.106Z,2.40
2023-05-04T08:55:55.907Z,1.90
2023-05-04T08:59:02.098Z,1.98
2023-05-04T09:02:08.057Z,1.90
2023-05-04T09:05:13.157Z,2.17
2023-05-04T09:08:18.508Z,2.10
2023-05-04T09:11:23.853Z,3.08
2023-05-04T09:14:36.220Z,2.78
2023-05-04T09:17:50.920Z,3.00
2023-05-04T09:21:01.634Z,3.08
2023-05-04T09:24:06.498Z,2.53
2023-05-04T09:27:13.163Z,3.50
2023-05-04T09:30:22.034Z,2.50
2023-05-04T09:33:28.127Z,2.40
2023-05-04T09:36:32.729Z,3.10
2023-05-04T09:39:37.585Z,3.58
2023-05-04T09:42:43.062Z,2.60
2023-05-04T09:45:49.002Z,2.53
2023-05-04T09:48:55.551Z,2.72
2023-05-04T09:52:04.870Z,3.40
2023-05-04T09:55:14.463Z,3.10
2023-05-04T09:58:20.878Z,2.95
2023-05-04T10:01:32.146Z,3.17
2023-05-04T10:04:37.095Z,3.28
2023-05-04T10:07:46.496Z,3.03
2023-05-04T10:10:52.446Z,3.50
2023-05-04T10:13:57.353Z,3.35
2023-05-04T10:17:42.964Z,2.63
2023-05-04T10:21:42.406Z,3.65
2023-05-04T10:25:41.040Z,3.05
2023-05-04T10:29:07.360Z,3.67
2023-05-04T10:32:23.128Z,3.65
2023-05-04T10:35:28.032Z,4.72
2023-05-04T10:38:37.093Z,4.47
2023-05-04T10:41:41.974Z,3.95
2023-05-04T10:44:57.133Z,3.47
2023-05-04T10:48:02.310Z,4.07
2023-05-04T10:51:22.483Z,4.72
2023-05-04T10:54:26.955Z,3.67
2023-05-04T10:57:31.835Z,4.53
2023-05-04T11:00:39.043Z,4.28
2023-05-04T11:03:44.192Z,4.70
2023-05-04T11:07:05.073Z,4.40
2023-05-04T11:10:26.049Z,4.40
2023-05-04T11:13:33.815Z,5.70
2023-05-04T11:16:38.374Z,4.20
2023-05-04T11:19:51.281Z,4.85
2023-05-04T11:22:56.245Z,4.90
2023-05-04T11:26:08.431Z,4.50
2023-05-04T11:29:14.476Z,4.97
2023-05-04T11:32:19.462Z,4.35
2023-05-04T11:35:23.779Z,4.20
2023-05-04T11:38:28.540Z,4.55
2023-05-04T11:41:33.967Z,5.05
2023-05-04T11:44:39.052Z,4.80
2023-05-04T11:47:45.330Z,5.53
2023-05-04T11:50:50.541Z,5.35
2023-05-04T11:53:55.109Z,5.40
2023-05-04T11:57:01.837Z,4.43
2023-05-04T12:00:09.955Z,5.60
2023-05-04T12:03:17.917Z,4.78
2023-05-04T12:06:33.844Z,5.00
2023-05-04T12:09:49.131Z,5.45
2023-05-04T12:12:53.580Z,5.65
2023-05-04T12:16:19.517Z,5.10
2023-05-04T12:19:26.546Z,4.75
2023-05-04T12:22:35.836Z,6.78
2023-05-04T12:25:50.968Z,4.53
2023-05-04T12:29:02.439Z,4.65
2023-05-04T12:32:08.801Z,4.28
2023-05-04T12:35:13.305Z,4.60
2023-05-04T12:38:18.050Z,5.63
2023-05-04T12:41:23.745Z,5.00
2023-05-04T12:44:28.698Z,5.15
2023-05-04T12:47:33.313Z,4.55
2023-05-04T12:50:38.174Z,5.63
2023-05-04T12:53:43.585Z,4.43
2023-05-04T12:56:48.007Z,5.57
2023-05-04T12:59:52.720Z,4.88
2023-05-04T13:03:00.855Z,4.28
2023-05-04T13:06:06.039Z,5.93
2023-05-04T13:09:10.859Z,5.78
2023-05-04T13:12:15.362Z,5.70
2023-05-04T13:15:20.220Z,4.88
2023-05-04T13:18:27.222Z,5.60
2023-05-04T13:21:32.458Z,7.00
2023-05-04T13:24:37.254Z,6.00
2023-05-04T13:27:42.192Z,5.70
2023-05-04T13:34:14.940Z,5.38
2023-05-04T13:37:20.348Z,5.28
2023-05-04T13:40:24.920Z,5.75
2023-05-04T13:43:29.437Z,7.15
2023-05-04T13:46:36.676Z,5.85
2023-05-04T13:49:41.225Z,7.63
2023-05-04T13:52:46.140Z,6.53
2023-05-04T13:55:51.121Z,6.22
2023-05-04T13:58:56.200Z,7.47
2023-05-04T14:02:01.313Z,6.80
2023-05-04T14:05:06.795Z,5.47
2023-05-04T14:08:12.122Z,7.18
2023-05-04T14:11:16.570Z,7.90
2023-05-04T14:14:22.184Z,7.32
2023-05-04T14:17:26.529Z,7.00
2023-05-04T14:20:32.076Z,8.15
2023-05-04T14:23:37.573Z,6.38
2023-05-04T14:26:42.398Z,7.38
2023-05-04T14:29:47.973Z,7.30
2023-05-04T14:32:58.337Z,6.65
2023-05-04T14:36:04.101Z,8.05
2023-05-04T14:39:09.179Z,7.47
2023-05-04T14:42:13.533Z,8.07
2023-05-04T14:45:18.434Z,6.70
2023-05-04T14:48:25.915Z,8.50
2023-05-04T14:51:30.631Z,8.75
2023-05-04T14:54:34.991Z,8.65
2023-05-04T14:57:40.862Z,7.45
2023-05-04T15:00:46.209Z,7.13
2023-05-04T15:03:50.781Z,7.40
2023-05-04T15:06:55.621Z,7.63
2023-05-04T15:10:00.329Z,7.72
2023-05-04T15:13:04.630Z,7.00
2023-05-04T15:16:09.152Z,7.82
2023-05-04T15:19:13.773Z,6.22
2023-05-04T15:22:18.469Z,6.22
2023-05-04T15:25:23.826Z,6.07
2023-05-04T15:28:28.495Z,7.32
2023-05-04T15:31:32.849Z,7.50
2023-05-04T15:34:37.414Z,6.75
2023-05-04T15:37:41.884Z,6.43
2023-05-04T15:40:46.528Z,6.85
2023-05-04T15:43:51.377Z,6.72
2023-05-04T15:46:56.848Z,6.80
2023-05-04T15:50:01.253Z,5.93
2023-05-04T15:53:05.929Z,8.25
2023-05-04T15:56:13.258Z,6.55
2023-05-04T15:59:20.355Z,6.25
2023-05-04T16:02:24.791Z,7.20
2023-05-04T16:05:29.548Z,7.43
2023-05-04T16:08:34.467Z,8.15
2023-05-04T16:11:39.002Z,7.90
2023-05-04T16:14:43.978Z,7.90
2023-05-04T16:17:48.515Z,6.70
2023-05-04T16:20:54.689Z,6.05
2023-05-04T16:23:59.416Z,6.32
2023-05-04T16:27:04.245Z,6.80
2023-05-04T16:30:09.885Z,6.90
2023-05-04T16:33:14.730Z,5.85
2023-05-04T16:36:19.062Z,5.80
2023-05-04T16:39:31.911Z,7.03
2023-05-04T16:42:36.516Z,6.17
2023-05-04T16:45:41.351Z,6.45
2023-05-04T16:48:46.165Z,6.50
2023-05-04T16:51:53.467Z,6.40
2023-05-04T16:54:57.785Z,5.85
2023-05-04T16:58:02.516Z,4.57
2023-05-04T17:01:08.451Z,4.22
2023-05-04T17:04:13.942Z,3.88
2023-05-04T17:07:18.924Z,6.97
2023-05-04T17:10:24.795Z,5.22
2023-05-04T17:13:29.769Z,6.72
2023-05-04T17:16:34.708Z,5.97
2023-05-04T17:19:41.133Z,4.22
2023-05-04T17:22:45.880Z,5.50
2023-05-04T17:25:50.906Z,5.20
2023-05-04T17:28:55.456Z,5.55
2023-05-04T17:32:00.452Z,5.00
2023-05-04T17:35:20.216Z,4.28
2023-05-04T17:38:28.042Z,3.95
2023-05-04T17:41:33.013Z,4.43
2023-05-04T17:44:37.666Z,4.32
2023-05-04T17:47:43.931Z,4.55
2023-05-04T17:50:48.623Z,4.28
2023-05-04T17:53:53.293Z,3.47
2023-05-04T17:56:57.832Z,4.28
2023-05-04T18:00:05.267Z,3.15
2023-05-04T18:03:10.211Z,3.38
2023-05-04T18:06:14.974Z,4.28
2023-05-04T18:09:19.807Z,4.03
2023-05-04T18:12:24.633Z,4.10
2023-05-04T18:15:29.417Z,4.03
2023-05-04T18:18:34.221Z,3.90
2023-05-04T18:21:38.697Z,3.30
2023-05-04T18:24:43.125Z,3.50
2023-05-04T18:27:47.741Z,2.70
2023-05-04T18:30:52.484Z,3.60
2023-05-04T18:33:59.335Z,3.20
2023-05-04T18:37:03.703Z,3.22
2023-05-04T18:40:10.027Z,3.10
2023-05-04T18:43:15.233Z,2.72
2023-05-04T18:46:19.920Z,3.05
2023-05-04T18:49:24.992Z,2.60
2023-05-04T18:52:29.512Z,3.15
2023-05-04T18:55:34.831Z,3.60
2023-05-04T18:58:39.726Z,3.30
2023-05-04T19:01:44.686Z,3.42
2023-05-04T19:04:49.536Z,2.67
2023-05-04T19:07:54.250Z,3.50
2023-05-04T19:10:59.314Z,2.92
2023-05-04T19:14:04.247Z,3.08
2023-05-04T19:17:09.170Z,3.25
2023-05-04T19:20:14.036Z,3.20
2023-05-04T19:23:18.928Z,3.00
2023-05-04T19:26:23.889Z,3.50
2023-05-04T19:29:28.804Z,3.55
2023-05-04T19:32:34.167Z,3.10
2023-05-04T19:35:38.964Z,3.22
2023-05-04T19:38:45.890Z,3.30
2023-05-04T19:41:50.750Z,3.13
2023-05-04T19:44:55.427Z,3.30
2023-05-04T19:48:00.347Z,3.28
2023-05-04T19:51:05.033Z,3.30
2023-05-04T19:54:11.216Z,2.95
2023-05-04T19:57:16.329Z,3.63
2023-05-04T20:00:20.815Z,3.35
2023-05-04T20:03:25.765Z,2.95
2023-05-04T20:06:30.626Z,3.30
2023-05-04T20:09:35.812Z,3.42
2023-05-04T20:12:41.268Z,3.10
2023-05-04T20:15:45.972Z,4.70
2023-05-04T20:18:51.520Z,4.57
2023-05-04T20:21:56.328Z,3.72
2023-05-04T20:25:00.971Z,3.65
2023-05-04T20:28:05.699Z,3.60
2023-05-04T20:31:10.156Z,3.13
2023-05-04T20:34:16.344Z,3.58
2023-05-04T20:37:21.397Z,3.40
2023-05-04T20:40:25.810Z,3.47
2023-05-04T20:43:30.382Z,3.10
2023-05-04T20:46:34.964Z,3.20
2023-05-04T20:49:39.419Z,3.85
2023-05-04T20:52:44.727Z,3.65
2023-05-04T20:55:49.062Z,3.47
2023-05-04T20:58:53.522Z,3.72
2023-05-04T21:01:58.298Z,4.00
2023-05-04T21:05:03.034Z,3.58
2023-05-04T21:08:08.265Z,3.03
2023-05-04T21:11:12.941Z,3.10
2023-05-04T21:14:17.554Z,3.03
2023-05-04T21:17:22.067Z,3.25
2023-05-04T21:20:26.755Z,3.10
2023-05-04T21:23:32.546Z,3.70
2023-05-04T21:26:37.336Z,3.70
2023-05-04T21:29:41.953Z,2.58
2023-05-04T21:32:46.483Z,3.67
2023-05-04T21:35:51.006Z,3.42
2023-05-04T21:38:55.496Z,3.42
2023-05-04T21:42:01.556Z,3.78
2023-05-04T21:45:06.833Z,3.70
2023-05-04T21:48:11.331Z,3.17
2023-05-04T21:51:16.370Z,3.92
2023-05-04T21:54:23.602Z,4.50
2023-05-04T21:57:32.618Z,3.83
2023-05-04T22:00:36.938Z,3.22
2023-05-04T22:03:41.324Z,4.10
2023-05-04T22:06:47.406Z,3.45
2023-05-04T22:09:52.236Z,3.70
2023-05-04T22:12:57.048Z,3.88
2023-05-04T22:16:01.365Z,3.50
2023-05-04T22:19:06.106Z,3.40
2023-05-04T22:22:10.621Z,3.25
2023-05-04T22:25:15.294Z,3.75
2023-05-04T22:28:20.475Z,3.40
2023-05-04T22:31:25.099Z,3.65
2023-05-04T22:34:29.681Z,3.20
2023-05-04T22:37:34.015Z,3.70
2023-05-04T22:40:40.429Z,3.83
2023-05-04T22:43:45.342Z,3.55
2023-05-04T22:46:50.022Z,3.10
2023-05-04T22:49:56.394Z,3.55
2023-05-04T22:53:01.095Z,3.50
2023-05-04T22:56:05.997Z,3.30
2023-05-04T22:59:10.366Z,3.22
2023-05-04T23:02:15.218Z,2.78
2023-05-04T23:05:20.395Z,3.33
2023-05-04T23:08:26.343Z,2.70
2023-05-04T23:11:31.043Z,2.50
2023-05-04T23:14:35.731Z,2.78
2023-05-04T23:17:41.072Z,3.00
2023-05-04T23:20:45.792Z,3.00
2023-05-04T23:23:53.821Z,3.00
2023-05-04T23:26:59.016Z,3.40
2023-05-04T23:30:04.656Z,3.40
2023-05-04T23:33:09.282Z,3.60
2023-05-04T23:36:14.091Z,3.00
2023-05-04T23:39:18.376Z,3.08
2023-05-04T23:42:22.530Z,3.10
2023-05-04T23:45:27.629Z,3.13
2023-05-04T23:48:32.682Z,3.05
2023-05-04T23:51:37.499Z,2.83
2023-05-04T23:54:42.111Z,3.42
2023-05-04T23:57:46.541Z,3.28
